sensor_id;sensor_type;location;lat;lon;timestamp;temperature;humidity
71304;DHT22;59091;47.446;19.148;2022-12-18T00:00:59;0.42;71.19
71304;DHT22;59091;47.446;19.148;2022-12-18T00:03:25;0.42;70.99
71304;DHT22;59091;47.446;19.148;2022-12-18T00:05:51;0.42;70.97
71304;DHT22;59091;47.446;19.148;2022-12-18T00:08:17;0.43;70.79
71304;DHT22;59091;47.446;19.148;2022-12-18T00:10:44;0.64;70.60
71304;DHT22;59091;47.446;19.148;2022-12-18T00:13:10;0.63;70.63
71304;DHT22;59091;47.446;19.148;2022-12-18T00:15:37;0.76;70.31
71304;DHT22;59091;47.446;19.148;2022-12-18T00:18:02;0.79;70.05
71304;DHT22;59091;47.446;19.148;2022-12-18T00:20:28;0.84;69.77
71304;DHT22;59091;47.446;19.148;2022-12-18T00:22:54;0.88;69.67
71304;DHT22;59091;47.446;19.148;2022-12-18T00:25:19;0.79;69.62
71304;DHT22;59091;47.446;19.148;2022-12-18T00:27:45;0.69;69.81
71304;DHT22;59091;47.446;19.148;2022-12-18T00:30:10;0.59;70.07
71304;DHT22;59091;47.446;19.148;2022-12-18T00:32:36;0.59;70.06
71304;DHT22;59091;47.446;19.148;2022-12-18T00:35:02;0.69;69.87
71304;DHT22;59091;47.446;19.148;2022-12-18T00:37:28;1.25;84.57
71304;DHT22;59091;47.446;19.148;2022-12-18T00:39:53;1.45;82.64
71304;DHT22;59091;47.446;19.148;2022-12-18T00:42:18;1.27;73.31
71304;DHT22;59091;47.446;19.148;2022-12-18T00:45:03;1.18;69.49
71304;DHT22;59091;47.446;19.148;2022-12-18T00:47:28;1.09;68.82
71304;DHT22;59091;47.446;19.148;2022-12-18T00:49:53;1.03;68.59
71304;DHT22;59091;47.446;19.148;2022-12-18T00:52:19;0.86;68.46
71304;DHT22;59091;47.446;19.148;2022-12-18T00:54:44;0.69;68.84
71304;DHT22;59091;47.446;19.148;2022-12-18T00:57:10;0.70;69.23
71304;DHT22;59091;47.446;19.148;2022-12-18T00:59:35;0.70;69.11
71304;DHT22;59091;47.446;19.148;2022-12-18T01:02:00;0.80;69.03
71304;DHT22;59091;47.446;19.148;2022-12-18T01:04:26;0.70;68.98
71304;DHT22;59091;47.446;19.148;2022-12-18T01:06:51;0.69;69.12
71304;DHT22;59091;47.446;19.148;2022-12-18T01:09:16;0.73;69.06
71304;DHT22;59091;47.446;19.148;2022-12-18T01:11:42;0.69;69.35
71304;DHT22;59091;47.446;19.148;2022-12-18T01:14:07;0.73;69.42
71304;DHT22;59091;47.446;19.148;2022-12-18T01:16:33;0.74;69.34
71304;DHT22;59091;47.446;19.148;2022-12-18T01:18:59;0.70;69.29
71304;DHT22;59091;47.446;19.148;2022-12-18T01:21:24;0.81;69.26
71304;DHT22;59091;47.446;19.148;2022-12-18T01:23:54;0.87;69.19
71304;DHT22;59091;47.446;19.148;2022-12-18T01:26:20;0.98;69.03
71304;DHT22;59091;47.446;19.148;2022-12-18T01:28:46;1.03;68.88
71304;DHT22;59091;47.446;19.148;2022-12-18T01:31:17;1.03;68.87
71304;DHT22;59091;47.446;19.148;2022-12-18T01:33:44;1.07;69.07
71304;DHT22;59091;47.446;19.148;2022-12-18T01:36:24;1.07;69.18
71304;DHT22;59091;47.446;19.148;2022-12-18T01:38:50;1.05;69.34
71304;DHT22;59091;47.446;19.148;2022-12-18T01:41:19;1.11;69.38
71304;DHT22;59091;47.446;19.148;2022-12-18T01:43:48;1.11;69.19
71304;DHT22;59091;47.446;19.148;2022-12-18T01:46:15;1.13;68.85
71304;DHT22;59091;47.446;19.148;2022-12-18T01:48:42;1.13;68.57
71304;DHT22;59091;47.446;19.148;2022-12-18T01:51:09;1.11;68.50
71304;DHT22;59091;47.446;19.148;2022-12-18T01:53:36;1.13;68.38
71304;DHT22;59091;47.446;19.148;2022-12-18T01:56:02;1.15;68.46
71304;DHT22;59091;47.446;19.148;2022-12-18T01:58:44;1.13;68.24
71304;DHT22;59091;47.446;19.148;2022-12-18T02:01:11;1.05;68.47
71304;DHT22;59091;47.446;19.148;2022-12-18T02:03:37;1.07;68.17
71304;DHT22;59091;47.446;19.148;2022-12-18T02:06:16;0.94;68.09
71304;DHT22;59091;47.446;19.148;2022-12-18T02:08:54;0.77;68.35
71304;DHT22;59091;47.446;19.148;2022-12-18T02:17:19;0.73;68.33
71304;DHT22;59091;47.446;19.148;2022-12-18T02:19:55;0.88;68.80
71304;DHT22;59091;47.446;19.148;2022-12-18T02:22:29;0.94;68.51
71304;DHT22;59091;47.446;19.148;2022-12-18T02:25:25;0.84;68.39
71304;DHT22;59091;47.446;19.148;2022-12-18T02:27:48;0.93;68.49
71304;DHT22;59091;47.446;19.148;2022-12-18T02:30:15;0.98;68.39
71304;DHT22;59091;47.446;19.148;2022-12-18T02:32:45;0.88;68.31
71304;DHT22;59091;47.446;19.148;2022-12-18T02:35:16;0.95;68.42
71304;DHT22;59091;47.446;19.148;2022-12-18T02:37:43;0.95;68.32
71304;DHT22;59091;47.446;19.148;2022-12-18T02:40:11;0.93;68.35
71304;DHT22;59091;47.446;19.148;2022-12-18T02:42:37;0.95;68.34
71304;DHT22;59091;47.446;19.148;2022-12-18T02:45:03;1.03;68.29
71304;DHT22;59091;47.446;19.148;2022-12-18T02:47:31;1.00;68.61
71304;DHT22;59091;47.446;19.148;2022-12-18T02:57:40;0.74;68.77
71304;DHT22;59091;47.446;19.148;2022-12-18T03:00:19;0.67;68.68
71304;DHT22;59091;47.446;19.148;2022-12-18T03:02:53;0.70;68.92
71304;DHT22;59091;47.446;19.148;2022-12-18T03:05:38;0.73;68.86
71304;DHT22;59091;47.446;19.148;2022-12-18T03:08:15;0.66;69.02
71304;DHT22;59091;47.446;19.148;2022-12-18T03:10:46;0.73;69.12
71304;DHT22;59091;47.446;19.148;2022-12-18T03:13:19;0.74;68.95
71304;DHT22;59091;47.446;19.148;2022-12-18T03:15:48;0.77;69.15
71304;DHT22;59091;47.446;19.148;2022-12-18T03:18:23;0.76;69.03
71304;DHT22;59091;47.446;19.148;2022-12-18T03:20:51;0.73;69.18
71304;DHT22;59091;47.446;19.148;2022-12-18T03:23:21;0.74;69.29
71304;DHT22;59091;47.446;19.148;2022-12-18T03:25:49;0.76;69.22
71304;DHT22;59091;47.446;19.148;2022-12-18T03:28:20;0.76;69.28
71304;DHT22;59091;47.446;19.148;2022-12-18T03:30:49;0.66;69.50
71304;DHT22;59091;47.446;19.148;2022-12-18T03:33:19;0.66;69.39
71304;DHT22;59091;47.446;19.148;2022-12-18T03:35:45;0.72;69.50
71304;DHT22;59091;47.446;19.148;2022-12-18T03:38:11;0.67;69.38
71304;DHT22;59091;47.446;19.148;2022-12-18T03:48:52;0.46;69.71
71304;DHT22;59091;47.446;19.148;2022-12-18T03:51:42;0.45;69.89
71304;DHT22;59091;47.446;19.148;2022-12-18T03:54:11;0.41;70.19
71304;DHT22;59091;47.446;19.148;2022-12-18T03:56:43;0.42;70.13
71304;DHT22;59091;47.446;19.148;2022-12-18T03:59:10;0.42;70.31
71304;DHT22;59091;47.446;19.148;2022-12-18T04:01:43;0.39;70.09
71304;DHT22;59091;47.446;19.148;2022-12-18T04:04:13;0.42;70.02
71304;DHT22;59091;47.446;19.148;2022-12-18T04:06:40;0.39;69.97
71304;DHT22;59091;47.446;19.148;2022-12-18T04:09:07;0.43;69.77
71304;DHT22;59091;47.446;19.148;2022-12-18T04:11:32;0.36;70.09
71304;DHT22;59091;47.446;19.148;2022-12-18T04:13:58;0.33;70.13
71304;DHT22;59091;47.446;19.148;2022-12-18T04:16:25;0.30;70.19
71304;DHT22;59091;47.446;19.148;2022-12-18T04:18:50;0.35;70.14
71304;DHT22;59091;47.446;19.148;2022-12-18T04:21:16;0.33;70.04
71304;DHT22;59091;47.446;19.148;2022-12-18T04:23:41;0.26;70.07
71304;DHT22;59091;47.446;19.148;2022-12-18T04:26:06;0.25;70.09
71304;DHT22;59091;47.446;19.148;2022-12-18T04:28:32;0.28;70.15
71304;DHT22;59091;47.446;19.148;2022-12-18T04:30:57;0.25;70.11
71304;DHT22;59091;47.446;19.148;2022-12-18T04:33:22;0.22;70.14
71304;DHT22;59091;47.446;19.148;2022-12-18T04:35:48;0.16;70.04
71304;DHT22;59091;47.446;19.148;2022-12-18T04:38:13;0.16;70.04
71304;DHT22;59091;47.446;19.148;2022-12-18T04:40:39;0.15;70.01
71304;DHT22;59091;47.446;19.148;2022-12-18T04:43:04;0.11;69.84
71304;DHT22;59091;47.446;19.148;2022-12-18T04:45:31;0.01;69.91
71304;DHT22;59091;47.446;19.148;2022-12-18T04:48:00;-0.03;69.90
71304;DHT22;59091;47.446;19.148;2022-12-18T04:50:27;-0.05;69.88
71304;DHT22;59091;47.446;19.148;2022-12-18T04:52:53;-0.05;70.23
71304;DHT22;59091;47.446;19.148;2022-12-18T04:55:18;-0.10;70.09
71304;DHT22;59091;47.446;19.148;2022-12-18T04:57:44;-0.10;70.16
71304;DHT22;59091;47.446;19.148;2022-12-18T05:00:09;-0.16;70.35
71304;DHT22;59091;47.446;19.148;2022-12-18T05:02:35;-0.18;70.67
71304;DHT22;59091;47.446;19.148;2022-12-18T05:05:00;-0.25;71.03
71304;DHT22;59091;47.446;19.148;2022-12-18T05:07:26;-0.23;70.80
71304;DHT22;59091;47.446;19.148;2022-12-18T05:09:51;-0.26;70.71
71304;DHT22;59091;47.446;19.148;2022-12-18T05:12:16;-0.29;71.03
71304;DHT22;59091;47.446;19.148;2022-12-18T05:14:42;-0.34;71.02
71304;DHT22;59091;47.446;19.148;2022-12-18T05:17:07;-0.37;71.05
71304;DHT22;59091;47.446;19.148;2022-12-18T05:19:33;-0.40;72.04
71304;DHT22;59091;47.446;19.148;2022-12-18T05:21:58;-0.43;71.82
71304;DHT22;59091;47.446;19.148;2022-12-18T05:24:23;-0.40;71.33
71304;DHT22;59091;47.446;19.148;2022-12-18T05:26:49;-0.44;70.95
71304;DHT22;59091;47.446;19.148;2022-12-18T05:29:14;-0.47;71.34
71304;DHT22;59091;47.446;19.148;2022-12-18T05:31:39;-0.47;71.44
71304;DHT22;59091;47.446;19.148;2022-12-18T05:34:05;-0.52;71.38
71304;DHT22;59091;47.446;19.148;2022-12-18T05:36:31;-0.56;71.23
71304;DHT22;59091;47.446;19.148;2022-12-18T05:38:56;-0.59;71.13
71304;DHT22;59091;47.446;19.148;2022-12-18T05:41:21;-0.60;71.04
71304;DHT22;59091;47.446;19.148;2022-12-18T05:43:47;-0.63;71.08
71304;DHT22;59091;47.446;19.148;2022-12-18T05:46:15;-0.63;70.77
71304;DHT22;59091;47.446;19.148;2022-12-18T05:48:42;-0.67;70.61
71304;DHT22;59091;47.446;19.148;2022-12-18T05:51:10;-0.74;70.57
71304;DHT22;59091;47.446;19.148;2022-12-18T05:53:37;-0.76;70.73
71304;DHT22;59091;47.446;19.148;2022-12-18T05:56:04;-0.73;70.91
71304;DHT22;59091;47.446;19.148;2022-12-18T05:58:30;-0.78;70.68
71304;DHT22;59091;47.446;19.148;2022-12-18T06:00:56;-0.80;70.57
71304;DHT22;59091;47.446;19.148;2022-12-18T06:03:22;-0.78;70.71
71304;DHT22;59091;47.446;19.148;2022-12-18T06:05:47;-0.84;70.88
71304;DHT22;59091;47.446;19.148;2022-12-18T06:08:12;-0.88;70.80
71304;DHT22;59091;47.446;19.148;2022-12-18T06:10:38;-0.85;71.08
71304;DHT22;59091;47.446;19.148;2022-12-18T06:13:04;-0.94;71.66
71304;DHT22;59091;47.446;19.148;2022-12-18T06:15:30;-0.94;72.23
71304;DHT22;59091;47.446;19.148;2022-12-18T06:17:55;-0.84;72.06
71304;DHT22;59091;47.446;19.148;2022-12-18T06:20:21;-0.90;71.60
71304;DHT22;59091;47.446;19.148;2022-12-18T06:22:46;-0.91;71.24
71304;DHT22;59091;47.446;19.148;2022-12-18T06:25:11;-0.94;70.97
71304;DHT22;59091;47.446;19.148;2022-12-18T06:27:37;-0.95;70.83
71304;DHT22;59091;47.446;19.148;2022-12-18T06:30:04;-1.00;70.67
71304;DHT22;59091;47.446;19.148;2022-12-18T06:32:29;-0.97;71.25
71304;DHT22;59091;47.446;19.148;2022-12-18T06:34:55;-0.97;71.94
71304;DHT22;59091;47.446;19.148;2022-12-18T06:37:21;-1.00;71.38
71304;DHT22;59091;47.446;19.148;2022-12-18T06:39:49;-1.02;70.83
71304;DHT22;59091;47.446;19.148;2022-12-18T06:42:15;-1.02;70.77
71304;DHT22;59091;47.446;19.148;2022-12-18T06:44:40;-1.04;70.75
71304;DHT22;59091;47.446;19.148;2022-12-18T06:47:06;-1.07;70.88
71304;DHT22;59091;47.446;19.148;2022-12-18T06:49:31;-1.07;70.97
71304;DHT22;59091;47.446;19.148;2022-12-18T06:51:56;-1.05;70.99
71304;DHT22;59091;47.446;19.148;2022-12-18T06:54:22;-1.07;71.01
71304;DHT22;59091;47.446;19.148;2022-12-18T06:56:47;-1.04;71.06
71304;DHT22;59091;47.446;19.148;2022-12-18T06:59:13;-1.05;71.26
71304;DHT22;59091;47.446;19.148;2022-12-18T07:01:38;-1.04;71.37
71304;DHT22;59091;47.446;19.148;2022-12-18T07:04:04;-1.07;71.32
71304;DHT22;59091;47.446;19.148;2022-12-18T07:06:29;-1.01;71.45
71304;DHT22;59091;47.446;19.148;2022-12-18T07:08:55;-1.02;71.61
71304;DHT22;59091;47.446;19.148;2022-12-18T07:11:20;-0.98;71.67
71304;DHT22;59091;47.446;19.148;2022-12-18T07:13:46;-0.97;71.52
71304;DHT22;59091;47.446;19.148;2022-12-18T07:16:15;-0.94;71.64
71304;DHT22;59091;47.446;19.148;2022-12-18T07:18:40;-0.92;71.68
71304;DHT22;59091;47.446;19.148;2022-12-18T07:21:08;-0.95;71.66
71304;DHT22;59091;47.446;19.148;2022-12-18T07:23:34;-0.94;72.15
71304;DHT22;59091;47.446;19.148;2022-12-18T07:26:04;-0.88;72.44
71304;DHT22;59091;47.446;19.148;2022-12-18T07:28:31;-0.83;72.44
71304;DHT22;59091;47.446;19.148;2022-12-18T07:30:56;-0.80;72.37
71304;DHT22;59091;47.446;19.148;2022-12-18T07:33:22;-0.80;72.31
71304;DHT22;59091;47.446;19.148;2022-12-18T07:35:47;-0.76;72.38
71304;DHT22;59091;47.446;19.148;2022-12-18T07:38:12;-0.70;72.53
71304;DHT22;59091;47.446;19.148;2022-12-18T07:40:38;-0.68;72.43
71304;DHT22;59091;47.446;19.148;2022-12-18T07:43:03;-0.61;72.62
71304;DHT22;59091;47.446;19.148;2022-12-18T07:45:29;-0.57;72.86
71304;DHT22;59091;47.446;19.148;2022-12-18T07:47:54;-0.56;72.94
71304;DHT22;59091;47.446;19.148;2022-12-18T07:50:19;-0.50;72.99
71304;DHT22;59091;47.446;19.148;2022-12-18T07:52:45;-0.44;72.82
71304;DHT22;59091;47.446;19.148;2022-12-18T07:55:10;-0.39;72.68
71304;DHT22;59091;47.446;19.148;2022-12-18T07:57:36;-0.32;72.62
71304;DHT22;59091;47.446;19.148;2022-12-18T08:00:01;-0.30;72.52
71304;DHT22;59091;47.446;19.148;2022-12-18T08:02:30;-0.33;72.57
71304;DHT22;59091;47.446;19.148;2022-12-18T08:04:56;-0.25;72.52
71304;DHT22;59091;47.446;19.148;2022-12-18T08:07:21;-0.18;72.39
71304;DHT22;59091;47.446;19.148;2022-12-18T08:09:46;-0.10;72.23
71304;DHT22;59091;47.446;19.148;2022-12-18T08:12:12;-0.12;72.15
71304;DHT22;59091;47.446;19.148;2022-12-18T08:14:37;-0.06;72.17
71304;DHT22;59091;47.446;19.148;2022-12-18T08:17:02;-0.02;72.34
71304;DHT22;59091;47.446;19.148;2022-12-18T08:19:28;0.08;72.02
71304;DHT22;59091;47.446;19.148;2022-12-18T08:21:53;0.18;73.94
71304;DHT22;59091;47.446;19.148;2022-12-18T08:24:18;0.29;75.28
71304;DHT22;59091;47.446;19.148;2022-12-18T08:26:44;0.30;72.16
71304;DHT22;59091;47.446;19.148;2022-12-18T08:29:09;0.23;71.47
71304;DHT22;59091;47.446;19.148;2022-12-18T08:31:35;0.41;73.49
71304;DHT22;59091;47.446;19.148;2022-12-18T08:34:01;0.48;71.39
71304;DHT22;59091;47.446;19.148;2022-12-18T08:36:26;0.52;70.90
71304;DHT22;59091;47.446;19.148;2022-12-18T08:38:52;0.53;70.68
71304;DHT22;59091;47.446;19.148;2022-12-18T08:41:18;0.59;70.50
71304;DHT22;59091;47.446;19.148;2022-12-18T08:43:44;0.59;70.33
71304;DHT22;59091;47.446;19.148;2022-12-18T08:46:33;0.60;70.21
71304;DHT22;59091;47.446;19.148;2022-12-18T08:48:59;0.67;70.45
71304;DHT22;59091;47.446;19.148;2022-12-18T08:51:24;0.72;70.19
71304;DHT22;59091;47.446;19.148;2022-12-18T08:53:50;0.72;70.23
71304;DHT22;59091;47.446;19.148;2022-12-18T08:56:15;0.79;70.17
71304;DHT22;59091;47.446;19.148;2022-12-18T08:58:41;0.83;69.83
71304;DHT22;59091;47.446;19.148;2022-12-18T09:01:09;0.90;69.68
71304;DHT22;59091;47.446;19.148;2022-12-18T09:03:35;0.88;69.75
71304;DHT22;59091;47.446;19.148;2022-12-18T09:06:01;0.90;69.48
71304;DHT22;59091;47.446;19.148;2022-12-18T09:08:27;0.97;69.40
71304;DHT22;59091;47.446;19.148;2022-12-18T09:10:53;1.05;69.17
71304;DHT22;59091;47.446;19.148;2022-12-18T09:13:19;1.03;69.24
71304;DHT22;59091;47.446;19.148;2022-12-18T09:15:47;1.08;69.24
71304;DHT22;59091;47.446;19.148;2022-12-18T09:18:14;1.13;68.95
71304;DHT22;59091;47.446;19.148;2022-12-18T09:20:40;1.17;68.72
71304;DHT22;59091;47.446;19.148;2022-12-18T09:23:05;1.15;68.73
71304;DHT22;59091;47.446;19.148;2022-12-18T09:25:32;1.21;68.39
71304;DHT22;59091;47.446;19.148;2022-12-18T09:28:18;1.35;74.05
71304;DHT22;59091;47.446;19.148;2022-12-18T09:30:47;1.42;68.75
71304;DHT22;59091;47.446;19.148;2022-12-18T09:33:13;1.48;68.97
71304;DHT22;59091;47.446;19.148;2022-12-18T09:35:39;1.51;68.06
71304;DHT22;59091;47.446;19.148;2022-12-18T09:38:06;1.68;70.89
71304;DHT22;59091;47.446;19.148;2022-12-18T09:40:36;1.69;68.51
71304;DHT22;59091;47.446;19.148;2022-12-18T09:43:05;1.73;67.95
71304;DHT22;59091;47.446;19.148;2022-12-18T09:45:41;1.70;67.33
71304;DHT22;59091;47.446;19.148;2022-12-18T09:48:32;1.70;67.21
71304;DHT22;59091;47.446;19.148;2022-12-18T09:51:04;1.77;67.41
71304;DHT22;59091;47.446;19.148;2022-12-18T09:53:33;1.85;68.39
71304;DHT22;59091;47.446;19.148;2022-12-18T09:56:01;1.99;72.80
71304;DHT22;59091;47.446;19.148;2022-12-18T09:58:47;2.00;68.34
71304;DHT22;59091;47.446;19.148;2022-12-18T10:01:23;2.00;67.06
71304;DHT22;59091;47.446;19.148;2022-12-18T10:03:49;2.03;66.69
71304;DHT22;59091;47.446;19.148;2022-12-18T10:06:20;2.06;67.05
71304;DHT22;59091;47.446;19.148;2022-12-18T10:20:15;2.21;66.14
71304;DHT22;59091;47.446;19.148;2022-12-18T10:28:08;2.33;64.87
71304;DHT22;59091;47.446;19.148;2022-12-18T10:30:35;2.38;65.49
71304;DHT22;59091;47.446;19.148;2022-12-18T10:33:02;2.45;65.96
71304;DHT22;59091;47.446;19.148;2022-12-18T10:35:31;2.59;68.63
71304;DHT22;59091;47.446;19.148;2022-12-18T10:40:57;2.48;64.48
71304;DHT22;59091;47.446;19.148;2022-12-18T10:46:15;2.54;67.43
71304;DHT22;59091;47.446;19.148;2022-12-18T10:53:59;2.72;64.28
71304;DHT22;59091;47.446;19.148;2022-12-18T10:56:28;2.85;67.97
71304;DHT22;59091;47.446;19.148;2022-12-18T10:59:00;2.85;64.95
71304;DHT22;59091;47.446;19.148;2022-12-18T11:01:26;2.89;64.25
71304;DHT22;59091;47.446;19.148;2022-12-18T11:06:24;3.00;67.74
71304;DHT22;59091;47.446;19.148;2022-12-18T11:09:22;3.08;64.02
71304;DHT22;59091;47.446;19.148;2022-12-18T11:11:53;3.13;63.78
71304;DHT22;59091;47.446;19.148;2022-12-18T11:14:48;3.00;62.51
71304;DHT22;59091;47.446;19.148;2022-12-18T11:17:33;3.08;62.40
71304;DHT22;59091;47.446;19.148;2022-12-18T11:20:05;3.13;62.54
71304;DHT22;59091;47.446;19.148;2022-12-18T11:22:35;3.19;62.98
71304;DHT22;59091;47.446;19.148;2022-12-18T11:25:05;3.24;62.49
71304;DHT22;59091;47.446;19.148;2022-12-18T11:27:31;3.22;62.52
71304;DHT22;59091;47.446;19.148;2022-12-18T11:32:39;3.16;61.55
71304;DHT22;59091;47.446;19.148;2022-12-18T11:40:47;3.23;62.55
71304;DHT22;59091;47.446;19.148;2022-12-18T11:43:16;3.30;61.65
71304;DHT22;59091;47.446;19.148;2022-12-18T11:45:51;3.36;62.03
71304;DHT22;59091;47.446;19.148;2022-12-18T11:48:18;3.41;67.13
71304;DHT22;59091;47.446;19.148;2022-12-18T11:50:54;3.43;61.74
71304;DHT22;59091;47.446;19.148;2022-12-18T11:53:21;3.47;60.66
71304;DHT22;59091;47.446;19.148;2022-12-18T11:58:43;3.56;61.32
71304;DHT22;59091;47.446;19.148;2022-12-18T12:06:22;3.66;60.84
71304;DHT22;59091;47.446;19.148;2022-12-18T12:12:39;3.67;59.70
71304;DHT22;59091;47.446;19.148;2022-12-18T12:15:22;3.70;59.83
71304;DHT22;59091;47.446;19.148;2022-12-18T12:23:29;4.39;63.19
71304;DHT22;59091;47.446;19.148;2022-12-18T12:26:33;4.23;59.13
71304;DHT22;59091;47.446;19.148;2022-12-18T12:29:43;4.23;59.02
71304;DHT22;59091;47.446;19.148;2022-12-18T12:35:29;4.16;58.62
71304;DHT22;59091;47.446;19.148;2022-12-18T12:38:28;4.08;58.97
71304;DHT22;59091;47.446;19.148;2022-12-18T12:41:03;4.12;59.36
71304;DHT22;59091;47.446;19.148;2022-12-18T12:43:37;4.08;59.39
71304;DHT22;59091;47.446;19.148;2022-12-18T12:46:06;4.11;59.67
71304;DHT22;59091;47.446;19.148;2022-12-18T12:48:47;4.05;59.59
71304;DHT22;59091;47.446;19.148;2022-12-18T12:51:20;4.15;59.67
71304;DHT22;59091;47.446;19.148;2022-12-18T12:53:47;4.13;59.59
71304;DHT22;59091;47.446;19.148;2022-12-18T12:56:15;4.09;59.36
71304;DHT22;59091;47.446;19.148;2022-12-18T12:58:49;4.11;59.44
71304;DHT22;59091;47.446;19.148;2022-12-18T13:06:46;4.08;59.73
71304;DHT22;59091;47.446;19.148;2022-12-18T13:09:15;4.15;60.37
71304;DHT22;59091;47.446;19.148;2022-12-18T13:11:45;4.13;59.01
71304;DHT22;59091;47.446;19.148;2022-12-18T13:14:36;4.02;59.05
71304;DHT22;59091;47.446;19.148;2022-12-18T13:19:42;4.08;58.82
71304;DHT22;59091;47.446;19.148;2022-12-18T13:24:46;4.09;59.03
71304;DHT22;59091;47.446;19.148;2022-12-18T13:30:41;3.99;58.76
71304;DHT22;59091;47.446;19.148;2022-12-18T13:38:33;3.99;57.94
71304;DHT22;59091;47.446;19.148;2022-12-18T13:43:42;3.98;57.28
71304;DHT22;59091;47.446;19.148;2022-12-18T13:46:30;3.88;56.32
71304;DHT22;59091;47.446;19.148;2022-12-18T13:52:01;3.98;60.65
71304;DHT22;59091;47.446;19.148;2022-12-18T13:54:35;4.04;64.64
71304;DHT22;59091;47.446;19.148;2022-12-18T13:57:03;4.02;58.77
71304;DHT22;59091;47.446;19.148;2022-12-18T13:59:33;3.98;59.03
71304;DHT22;59091;47.446;19.148;2022-12-18T14:02:05;3.98;59.24
71304;DHT22;59091;47.446;19.148;2022-12-18T14:04:35;3.94;59.40
71304;DHT22;59091;47.446;19.148;2022-12-18T14:07:04;3.87;59.73
71304;DHT22;59091;47.446;19.148;2022-12-18T14:09:35;3.85;61.89
71304;DHT22;59091;47.446;19.148;2022-12-18T14:12:01;3.88;60.81
71304;DHT22;59091;47.446;19.148;2022-12-18T14:14:47;3.82;60.38
71304;DHT22;59091;47.446;19.148;2022-12-18T14:17:14;3.81;60.38
71304;DHT22;59091;47.446;19.148;2022-12-18T14:19:45;3.70;60.42
71304;DHT22;59091;47.446;19.148;2022-12-18T14:22:17;3.69;60.71
71304;DHT22;59091;47.446;19.148;2022-12-18T14:24:43;3.67;60.85
71304;DHT22;59091;47.446;19.148;2022-12-18T14:27:20;3.53;60.83
71304;DHT22;59091;47.446;19.148;2022-12-18T14:29:46;3.54;61.29
71304;DHT22;59091;47.446;19.148;2022-12-18T14:34:49;3.46;61.43
71304;DHT22;59091;47.446;19.148;2022-12-18T14:37:20;3.36;61.86
71304;DHT22;59091;47.446;19.148;2022-12-18T14:42:22;3.36;62.12
71304;DHT22;59091;47.446;19.148;2022-12-18T14:44:47;3.30;62.18
71304;DHT22;59091;47.446;19.148;2022-12-18T14:47:16;3.22;62.23
71304;DHT22;59091;47.446;19.148;2022-12-18T14:49:43;3.16;62.66
71304;DHT22;59091;47.446;19.148;2022-12-18T14:52:27;3.09;62.67
71304;DHT22;59091;47.446;19.148;2022-12-18T14:54:52;3.05;62.89
71304;DHT22;59091;47.446;19.148;2022-12-18T14:57:24;2.96;63.21
71304;DHT22;59091;47.446;19.148;2022-12-18T14:59:51;2.91;63.54
71304;DHT22;59091;47.446;19.148;2022-12-18T15:02:23;2.89;67.16
71304;DHT22;59091;47.446;19.148;2022-12-18T15:07:46;2.91;66.14
71304;DHT22;59091;47.446;19.148;2022-12-18T15:10:19;2.87;75.60
71304;DHT22;59091;47.446;19.148;2022-12-18T15:20:40;2.84;66.12
71304;DHT22;59091;47.446;19.148;2022-12-18T15:26:01;2.77;74.14
71304;DHT22;59091;47.446;19.148;2022-12-18T15:36:08;2.68;73.89
71304;DHT22;59091;47.446;19.148;2022-12-18T15:38:34;2.66;70.79
71304;DHT22;59091;47.446;19.148;2022-12-18T15:41:00;2.92;78.80
71304;DHT22;59091;47.446;19.148;2022-12-18T15:43:26;2.82;70.76
71304;DHT22;59091;47.446;19.148;2022-12-18T15:46:03;2.61;66.49
71304;DHT22;59091;47.446;19.148;2022-12-18T15:48:30;2.75;76.59
71304;DHT22;59091;47.446;19.148;2022-12-18T15:50:57;2.59;67.27
71304;DHT22;59091;47.446;19.148;2022-12-18T15:53:25;2.41;65.95
71304;DHT22;59091;47.446;19.148;2022-12-18T15:55:53;2.27;66.02
71304;DHT22;59091;47.446;19.148;2022-12-18T15:58:36;2.16;66.06
71304;DHT22;59091;47.446;19.148;2022-12-18T16:01:02;2.07;66.03
71304;DHT22;59091;47.446;19.148;2022-12-18T16:03:27;2.00;65.98
71304;DHT22;59091;47.446;19.148;2022-12-18T16:05:53;1.92;66.13
71304;DHT22;59091;47.446;19.148;2022-12-18T16:08:18;1.79;66.46
71304;DHT22;59091;47.446;19.148;2022-12-18T16:10:44;1.76;66.48
71304;DHT22;59091;47.446;19.148;2022-12-18T16:13:10;1.65;66.65
71304;DHT22;59091;47.446;19.148;2022-12-18T16:15:36;1.66;66.72
71304;DHT22;59091;47.446;19.148;2022-12-18T16:18:01;1.52;66.98
71304;DHT22;59091;47.446;19.148;2022-12-18T16:20:26;1.51;66.91
71304;DHT22;59091;47.446;19.148;2022-12-18T16:22:52;1.46;67.07
71304;DHT22;59091;47.446;19.148;2022-12-18T16:25:23;1.38;67.33
71304;DHT22;59091;47.446;19.148;2022-12-18T16:27:50;1.35;67.66
71304;DHT22;59091;47.446;19.148;2022-12-18T16:30:19;1.32;67.69
71304;DHT22;59091;47.446;19.148;2022-12-18T16:32:44;1.30;67.84
71304;DHT22;59091;47.446;19.148;2022-12-18T16:35:14;1.18;68.04
71304;DHT22;59091;47.446;19.148;2022-12-18T16:37:41;1.21;67.98
71304;DHT22;59091;47.446;19.148;2022-12-18T16:40:08;1.17;68.14
71304;DHT22;59091;47.446;19.148;2022-12-18T16:42:35;1.08;68.29
71304;DHT22;59091;47.446;19.148;2022-12-18T16:45:01;1.04;68.27
71304;DHT22;59091;47.446;19.148;2022-12-18T16:47:26;1.03;68.42
71304;DHT22;59091;47.446;19.148;2022-12-18T16:49:52;0.98;68.33
71304;DHT22;59091;47.446;19.148;2022-12-18T16:52:18;0.98;68.43
71304;DHT22;59091;47.446;19.148;2022-12-18T16:54:44;0.94;68.35
71304;DHT22;59091;47.446;19.148;2022-12-18T16:57:14;0.91;68.55
71304;DHT22;59091;47.446;19.148;2022-12-18T16:59:40;0.88;68.88
71304;DHT22;59091;47.446;19.148;2022-12-18T17:02:15;0.88;68.72
71304;DHT22;59091;47.446;19.148;2022-12-18T17:04:41;0.84;68.70
71304;DHT22;59091;47.446;19.148;2022-12-18T17:07:07;0.81;68.82
71304;DHT22;59091;47.446;19.148;2022-12-18T17:09:33;0.79;68.76
71304;DHT22;59091;47.446;19.148;2022-12-18T17:11:58;0.73;68.70
71304;DHT22;59091;47.446;19.148;2022-12-18T17:14:24;0.67;68.81
71304;DHT22;59091;47.446;19.148;2022-12-18T17:16:51;0.73;69.00
71304;DHT22;59091;47.446;19.148;2022-12-18T17:19:16;0.67;69.05
71304;DHT22;59091;47.446;19.148;2022-12-18T17:21:43;0.77;75.59
71304;DHT22;59091;47.446;19.148;2022-12-18T17:24:08;0.84;76.68
71304;DHT22;59091;47.446;19.148;2022-12-18T17:26:34;0.81;72.71
71304;DHT22;59091;47.446;19.148;2022-12-18T17:29:00;1.31;83.96
71304;DHT22;59091;47.446;19.148;2022-12-18T17:31:27;1.21;76.01
71304;DHT22;59091;47.446;19.148;2022-12-18T17:33:53;1.11;70.60
71304;DHT22;59091;47.446;19.148;2022-12-18T17:36:19;0.97;69.57
71304;DHT22;59091;47.446;19.148;2022-12-18T17:38:55;0.81;69.31
71304;DHT22;59091;47.446;19.148;2022-12-18T17:41:22;0.76;69.38
71304;DHT22;59091;47.446;19.148;2022-12-18T17:43:52;0.67;69.29
71304;DHT22;59091;47.446;19.148;2022-12-18T17:46:18;0.66;69.40
71304;DHT22;59091;47.446;19.148;2022-12-18T17:48:44;0.59;69.52